Aviation Digital Data Service (ADDS)

Output produced by METARs form (1507 UTC 01 March 2015)
found at http://aviationweather.gov/adds/metars/
 
KCAR 011120Z 0112/0212 22005KT P6SM SKC 
     FM011700 20009KT P6SM BKN030 
     FM012100 20009KT P6SM SCT030 OVC100 
     FM020300 18004KT 2SM -SN OVC030